sensor_id;sensor_type;location;lat;lon;timestamp;temperature;humidity
4487;DHT22;2256;48.740;9.106;2022-12-24T00:01:51;9.60;99.90
4487;DHT22;2256;48.740;9.106;2022-12-24T00:04:18;9.60;99.90
4487;DHT22;2256;48.740;9.106;2022-12-24T00:06:45;9.50;99.90
4487;DHT22;2256;48.740;9.106;2022-12-24T00:09:13;9.60;99.90
4487;DHT22;2256;48.740;9.106;2022-12-24T00:11:40;9.60;99.90
4487;DHT22;2256;48.740;9.106;2022-12-24T00:14:07;9.80;99.90
4487;DHT22;2256;48.740;9.106;2022-12-24T00:16:34;9.80;99.90
4487;DHT22;2256;48.740;9.106;2022-12-24T00:19:01;9.80;99.90
4487;DHT22;2256;48.740;9.106;2022-12-24T00:21:27;9.70;99.90
4487;DHT22;2256;48.740;9.106;2022-12-24T00:23:54;9.70;99.90
4487;DHT22;2256;48.740;9.106;2022-12-24T00:26:23;9.70;99.90
4487;DHT22;2256;48.740;9.106;2022-12-24T00:28:50;9.70;99.90
4487;DHT22;2256;48.740;9.106;2022-12-24T00:31:17;9.70;99.90
4487;DHT22;2256;48.740;9.106;2022-12-24T00:33:45;9.80;99.90
4487;DHT22;2256;48.740;9.106;2022-12-24T00:36:12;9.70;99.90
4487;DHT22;2256;48.740;9.106;2022-12-24T00:38:39;9.80;99.90
4487;DHT22;2256;48.740;9.106;2022-12-24T00:41:07;9.70;99.90
4487;DHT22;2256;48.740;9.106;2022-12-24T00:43:50;9.70;99.90
4487;DHT22;2256;48.740;9.106;2022-12-24T00:46:17;9.80;99.90
4487;DHT22;2256;48.740;9.106;2022-12-24T00:48:44;9.80;99.90
4487;DHT22;2256;48.740;9.106;2022-12-24T00:51:10;9.70;99.90
4487;DHT22;2256;48.740;9.106;2022-12-24T00:53:37;9.70;99.90
4487;DHT22;2256;48.740;9.106;2022-12-24T00:56:05;9.60;99.90
4487;DHT22;2256;48.740;9.106;2022-12-24T00:58:32;9.50;99.90
4487;DHT22;2256;48.740;9.106;2022-12-24T01:01:01;9.40;99.90
4487;DHT22;2256;48.740;9.106;2022-12-24T01:03:28;9.40;99.90
4487;DHT22;2256;48.740;9.106;2022-12-24T01:06:01;9.30;99.90
4487;DHT22;2256;48.740;9.106;2022-12-24T01:08:27;9.30;99.90
4487;DHT22;2256;48.740;9.106;2022-12-24T01:10:54;9.30;99.90
4487;DHT22;2256;48.740;9.106;2022-12-24T01:13:21;9.30;99.90
4487;DHT22;2256;48.740;9.106;2022-12-24T01:15:48;9.30;99.90
4487;DHT22;2256;48.740;9.106;2022-12-24T01:18:16;9.30;99.90
4487;DHT22;2256;48.740;9.106;2022-12-24T01:20:43;9.40;99.90
4487;DHT22;2256;48.740;9.106;2022-12-24T01:23:10;9.30;99.90
4487;DHT22;2256;48.740;9.106;2022-12-24T01:25:37;9.40;99.90
4487;DHT22;2256;48.740;9.106;2022-12-24T01:28:05;9.40;99.90
4487;DHT22;2256;48.740;9.106;2022-12-24T01:30:31;9.50;99.90
4487;DHT22;2256;48.740;9.106;2022-12-24T01:32:58;9.60;99.90
4487;DHT22;2256;48.740;9.106;2022-12-24T01:35:27;9.60;99.90
4487;DHT22;2256;48.740;9.106;2022-12-24T01:37:53;9.70;99.90
4487;DHT22;2256;48.740;9.106;2022-12-24T01:40:20;9.70;99.90
4487;DHT22;2256;48.740;9.106;2022-12-24T01:43:14;9.70;99.90
4487;DHT22;2256;48.740;9.106;2022-12-24T01:45:54;9.80;99.90
4487;DHT22;2256;48.740;9.106;2022-12-24T01:48:32;10.00;99.90
4487;DHT22;2256;48.740;9.106;2022-12-24T01:51:04;9.90;99.90
4487;DHT22;2256;48.740;9.106;2022-12-24T01:53:34;9.90;99.90
4487;DHT22;2256;48.740;9.106;2022-12-24T01:56:02;9.80;99.90
4487;DHT22;2256;48.740;9.106;2022-12-24T01:58:31;10.00;99.90
4487;DHT22;2256;48.740;9.106;2022-12-24T02:00:59;10.10;99.90
4487;DHT22;2256;48.740;9.106;2022-12-24T02:03:26;10.00;99.90
4487;DHT22;2256;48.740;9.106;2022-12-24T02:05:55;10.00;99.90
4487;DHT22;2256;48.740;9.106;2022-12-24T02:08:24;10.00;99.90
4487;DHT22;2256;48.740;9.106;2022-12-24T02:11:09;9.90;99.90
4487;DHT22;2256;48.740;9.106;2022-12-24T02:13:35;9.80;99.90
4487;DHT22;2256;48.740;9.106;2022-12-24T02:16:10;9.90;99.90
4487;DHT22;2256;48.740;9.106;2022-12-24T02:18:45;9.80;99.90
4487;DHT22;2256;48.740;9.106;2022-12-24T02:21:47;9.70;99.90
4487;DHT22;2256;48.740;9.106;2022-12-24T02:24:37;9.60;99.90
4487;DHT22;2256;48.740;9.106;2022-12-24T02:27:16;9.60;99.90
4487;DHT22;2256;48.740;9.106;2022-12-24T02:30:09;9.60;99.90
4487;DHT22;2256;48.740;9.106;2022-12-24T02:32:47;9.50;99.90
4487;DHT22;2256;48.740;9.106;2022-12-24T02:35:19;9.40;99.90
4487;DHT22;2256;48.740;9.106;2022-12-24T02:37:51;9.60;99.90
4487;DHT22;2256;48.740;9.106;2022-12-24T02:40:22;9.40;99.90
4487;DHT22;2256;48.740;9.106;2022-12-24T02:42:54;9.50;99.90
4487;DHT22;2256;48.740;9.106;2022-12-24T02:45:27;9.60;99.90
4487;DHT22;2256;48.740;9.106;2022-12-24T02:47:55;9.60;99.90
4487;DHT22;2256;48.740;9.106;2022-12-24T02:50:23;9.60;99.90
4487;DHT22;2256;48.740;9.106;2022-12-24T02:52:50;9.50;99.90
4487;DHT22;2256;48.740;9.106;2022-12-24T02:55:19;9.50;99.90
4487;DHT22;2256;48.740;9.106;2022-12-24T02:58:05;9.30;99.90
4487;DHT22;2256;48.740;9.106;2022-12-24T03:00:42;9.20;99.90
4487;DHT22;2256;48.740;9.106;2022-12-24T03:03:29;9.20;99.90
4487;DHT22;2256;48.740;9.106;2022-12-24T03:06:05;9.20;99.90
4487;DHT22;2256;48.740;9.106;2022-12-24T03:08:39;9.10;99.90
4487;DHT22;2256;48.740;9.106;2022-12-24T03:11:09;9.10;99.90
4487;DHT22;2256;48.740;9.106;2022-12-24T03:13:39;9.20;99.90
4487;DHT22;2256;48.740;9.106;2022-12-24T03:16:11;9.20;99.90
4487;DHT22;2256;48.740;9.106;2022-12-24T03:18:42;9.20;99.90
4487;DHT22;2256;48.740;9.106;2022-12-24T03:21:12;9.10;99.90
4487;DHT22;2256;48.740;9.106;2022-12-24T03:23:40;9.20;99.90
4487;DHT22;2256;48.740;9.106;2022-12-24T03:26:09;9.30;99.90
4487;DHT22;2256;48.740;9.106;2022-12-24T03:28:38;9.40;99.90
4487;DHT22;2256;48.740;9.106;2022-12-24T03:31:07;9.40;99.90
4487;DHT22;2256;48.740;9.106;2022-12-24T03:33:35;9.50;99.90
4487;DHT22;2256;48.740;9.106;2022-12-24T03:36:03;9.50;99.90
4487;DHT22;2256;48.740;9.106;2022-12-24T03:38:30;9.60;99.90
4487;DHT22;2256;48.740;9.106;2022-12-24T03:40:57;9.50;99.90
4487;DHT22;2256;48.740;9.106;2022-12-24T03:43:24;9.50;99.90
4487;DHT22;2256;48.740;9.106;2022-12-24T03:45:51;9.50;99.90
4487;DHT22;2256;48.740;9.106;2022-12-24T03:48:17;9.50;99.90
4487;DHT22;2256;48.740;9.106;2022-12-24T03:50:45;9.50;99.90
4487;DHT22;2256;48.740;9.106;2022-12-24T03:53:12;9.50;99.90
4487;DHT22;2256;48.740;9.106;2022-12-24T03:55:39;9.40;99.90
4487;DHT22;2256;48.740;9.106;2022-12-24T03:58:06;9.50;99.90
4487;DHT22;2256;48.740;9.106;2022-12-24T04:00:33;9.50;99.90
4487;DHT22;2256;48.740;9.106;2022-12-24T04:02:59;9.60;99.90
4487;DHT22;2256;48.740;9.106;2022-12-24T04:05:26;9.60;99.90
4487;DHT22;2256;48.740;9.106;2022-12-24T04:07:54;9.50;99.90
4487;DHT22;2256;48.740;9.106;2022-12-24T04:10:21;9.60;99.90
4487;DHT22;2256;48.740;9.106;2022-12-24T04:12:48;9.60;99.90
4487;DHT22;2256;48.740;9.106;2022-12-24T04:15:15;9.50;99.90
4487;DHT22;2256;48.740;9.106;2022-12-24T04:17:42;9.40;99.90
4487;DHT22;2256;48.740;9.106;2022-12-24T04:20:10;9.40;99.90
4487;DHT22;2256;48.740;9.106;2022-12-24T04:22:36;9.40;99.90
4487;DHT22;2256;48.740;9.106;2022-12-24T04:25:06;9.40;99.90
4487;DHT22;2256;48.740;9.106;2022-12-24T04:27:33;9.20;99.90
4487;DHT22;2256;48.740;9.106;2022-12-24T04:30:00;9.20;99.90
4487;DHT22;2256;48.740;9.106;2022-12-24T04:32:26;9.20;99.90
4487;DHT22;2256;48.740;9.106;2022-12-24T04:34:53;9.20;99.90
4487;DHT22;2256;48.740;9.106;2022-12-24T04:37:20;9.20;99.90
4487;DHT22;2256;48.740;9.106;2022-12-24T04:39:47;9.10;99.90
4487;DHT22;2256;48.740;9.106;2022-12-24T04:42:15;9.10;99.90
4487;DHT22;2256;48.740;9.106;2022-12-24T04:44:41;9.10;99.90
4487;DHT22;2256;48.740;9.106;2022-12-24T04:47:08;9.10;99.90
4487;DHT22;2256;48.740;9.106;2022-12-24T04:49:36;9.00;99.90
4487;DHT22;2256;48.740;9.106;2022-12-24T04:52:03;9.00;99.90
4487;DHT22;2256;48.740;9.106;2022-12-24T04:54:29;9.00;99.90
4487;DHT22;2256;48.740;9.106;2022-12-24T04:56:56;8.90;99.90
4487;DHT22;2256;48.740;9.106;2022-12-24T04:59:24;8.90;99.90
4487;DHT22;2256;48.740;9.106;2022-12-24T05:01:51;8.90;99.90
4487;DHT22;2256;48.740;9.106;2022-12-24T05:04:18;8.80;99.90
4487;DHT22;2256;48.740;9.106;2022-12-24T05:06:45;8.80;99.90
4487;DHT22;2256;48.740;9.106;2022-12-24T05:09:11;8.80;99.90
4487;DHT22;2256;48.740;9.106;2022-12-24T05:11:38;8.80;99.90
4487;DHT22;2256;48.740;9.106;2022-12-24T05:14:05;8.90;99.90
4487;DHT22;2256;48.740;9.106;2022-12-24T05:16:33;8.90;99.90
4487;DHT22;2256;48.740;9.106;2022-12-24T05:19:00;9.00;99.90
4487;DHT22;2256;48.740;9.106;2022-12-24T05:21:27;8.90;99.90
4487;DHT22;2256;48.740;9.106;2022-12-24T05:23:53;9.00;99.90
4487;DHT22;2256;48.740;9.106;2022-12-24T05:26:39;9.00;99.90
4487;DHT22;2256;48.740;9.106;2022-12-24T05:29:08;9.00;99.90
4487;DHT22;2256;48.740;9.106;2022-12-24T05:31:38;9.00;99.90
4487;DHT22;2256;48.740;9.106;2022-12-24T05:34:06;9.10;99.90
4487;DHT22;2256;48.740;9.106;2022-12-24T05:36:33;9.00;99.90
4487;DHT22;2256;48.740;9.106;2022-12-24T05:39:00;9.10;99.90
4487;DHT22;2256;48.740;9.106;2022-12-24T05:41:27;9.00;99.90
4487;DHT22;2256;48.740;9.106;2022-12-24T05:43:54;9.00;99.90
4487;DHT22;2256;48.740;9.106;2022-12-24T05:46:21;9.00;99.90
4487;DHT22;2256;48.740;9.106;2022-12-24T05:48:51;8.80;99.90
4487;DHT22;2256;48.740;9.106;2022-12-24T05:51:20;8.90;99.90
4487;DHT22;2256;48.740;9.106;2022-12-24T05:53:48;8.80;99.90
4487;DHT22;2256;48.740;9.106;2022-12-24T05:56:17;8.80;99.90
4487;DHT22;2256;48.740;9.106;2022-12-24T05:58:44;8.60;99.90
4487;DHT22;2256;48.740;9.106;2022-12-24T06:01:11;8.70;99.90
4487;DHT22;2256;48.740;9.106;2022-12-24T06:03:39;8.70;99.90
4487;DHT22;2256;48.740;9.106;2022-12-24T06:06:09;8.70;99.90
4487;DHT22;2256;48.740;9.106;2022-12-24T06:08:37;8.60;99.90
4487;DHT22;2256;48.740;9.106;2022-12-24T06:11:06;8.60;99.90
4487;DHT22;2256;48.740;9.106;2022-12-24T06:13:33;8.50;99.90
4487;DHT22;2256;48.740;9.106;2022-12-24T06:16:02;8.50;99.90
4487;DHT22;2256;48.740;9.106;2022-12-24T06:18:30;8.50;99.90
4487;DHT22;2256;48.740;9.106;2022-12-24T06:20:58;8.50;99.90
4487;DHT22;2256;48.740;9.106;2022-12-24T06:23:28;8.50;99.90
4487;DHT22;2256;48.740;9.106;2022-12-24T06:25:56;8.60;99.90
4487;DHT22;2256;48.740;9.106;2022-12-24T06:28:23;8.50;99.90
4487;DHT22;2256;48.740;9.106;2022-12-24T06:30:50;8.60;99.90
4487;DHT22;2256;48.740;9.106;2022-12-24T06:33:17;8.50;99.90
4487;DHT22;2256;48.740;9.106;2022-12-24T06:35:45;8.40;99.90
4487;DHT22;2256;48.740;9.106;2022-12-24T06:38:11;8.60;99.90
4487;DHT22;2256;48.740;9.106;2022-12-24T06:40:40;8.60;99.90
4487;DHT22;2256;48.740;9.106;2022-12-24T06:43:08;8.50;99.90
4487;DHT22;2256;48.740;9.106;2022-12-24T06:45:35;8.50;99.90
4487;DHT22;2256;48.740;9.106;2022-12-24T06:48:02;8.40;99.90
4487;DHT22;2256;48.740;9.106;2022-12-24T06:50:30;8.50;99.90
4487;DHT22;2256;48.740;9.106;2022-12-24T06:52:58;8.50;99.90
4487;DHT22;2256;48.740;9.106;2022-12-24T06:55:24;8.50;99.90
4487;DHT22;2256;48.740;9.106;2022-12-24T06:57:52;8.70;99.90
4487;DHT22;2256;48.740;9.106;2022-12-24T07:00:20;8.90;99.90
4487;DHT22;2256;48.740;9.106;2022-12-24T07:02:47;9.10;99.90
4487;DHT22;2256;48.740;9.106;2022-12-24T07:05:14;9.30;99.90
4487;DHT22;2256;48.740;9.106;2022-12-24T07:07:43;9.40;99.90
4487;DHT22;2256;48.740;9.106;2022-12-24T07:10:12;9.50;99.90
4487;DHT22;2256;48.740;9.106;2022-12-24T07:12:39;9.50;99.90
4487;DHT22;2256;48.740;9.106;2022-12-24T07:15:09;9.50;99.90
4487;DHT22;2256;48.740;9.106;2022-12-24T07:17:36;9.40;99.90
4487;DHT22;2256;48.740;9.106;2022-12-24T07:20:04;9.30;99.90
4487;DHT22;2256;48.740;9.106;2022-12-24T07:22:31;9.10;99.90
4487;DHT22;2256;48.740;9.106;2022-12-24T07:24:58;9.00;99.90
4487;DHT22;2256;48.740;9.106;2022-12-24T07:27:24;9.00;99.90
4487;DHT22;2256;48.740;9.106;2022-12-24T07:29:51;8.90;99.90
4487;DHT22;2256;48.740;9.106;2022-12-24T07:32:19;8.90;99.90
4487;DHT22;2256;48.740;9.106;2022-12-24T07:34:46;8.90;99.90
4487;DHT22;2256;48.740;9.106;2022-12-24T07:37:13;8.90;99.90
4487;DHT22;2256;48.740;9.106;2022-12-24T07:39:40;8.80;99.90
4487;DHT22;2256;48.740;9.106;2022-12-24T07:42:07;8.90;99.90
4487;DHT22;2256;48.740;9.106;2022-12-24T07:44:33;8.80;99.90
4487;DHT22;2256;48.740;9.106;2022-12-24T07:47:00;8.80;99.90
4487;DHT22;2256;48.740;9.106;2022-12-24T07:49:28;8.80;99.90
4487;DHT22;2256;48.740;9.106;2022-12-24T07:51:55;8.90;99.90
4487;DHT22;2256;48.740;9.106;2022-12-24T07:54:22;8.90;99.90
4487;DHT22;2256;48.740;9.106;2022-12-24T07:56:49;8.90;99.90
4487;DHT22;2256;48.740;9.106;2022-12-24T07:59:15;8.90;99.90
4487;DHT22;2256;48.740;9.106;2022-12-24T08:01:42;8.80;99.90
4487;DHT22;2256;48.740;9.106;2022-12-24T08:04:10;8.80;99.90
4487;DHT22;2256;48.740;9.106;2022-12-24T08:06:38;8.80;99.90
4487;DHT22;2256;48.740;9.106;2022-12-24T08:09:05;8.80;99.90
4487;DHT22;2256;48.740;9.106;2022-12-24T08:11:32;8.80;99.90
4487;DHT22;2256;48.740;9.106;2022-12-24T08:13:59;8.80;99.90
4487;DHT22;2256;48.740;9.106;2022-12-24T08:16:25;8.90;99.90
4487;DHT22;2256;48.740;9.106;2022-12-24T08:18:52;8.90;99.90
4487;DHT22;2256;48.740;9.106;2022-12-24T08:21:19;8.90;99.90
4487;DHT22;2256;48.740;9.106;2022-12-24T08:23:47;8.90;99.90
4487;DHT22;2256;48.740;9.106;2022-12-24T08:26:14;9.00;99.90
4487;DHT22;2256;48.740;9.106;2022-12-24T08:28:40;9.00;99.90
4487;DHT22;2256;48.740;9.106;2022-12-24T08:31:07;9.00;99.90
4487;DHT22;2256;48.740;9.106;2022-12-24T08:33:34;8.90;99.90
4487;DHT22;2256;48.740;9.106;2022-12-24T08:36:01;8.90;99.90
4487;DHT22;2256;48.740;9.106;2022-12-24T08:38:28;8.90;99.90
4487;DHT22;2256;48.740;9.106;2022-12-24T08:40:56;9.00;99.90
4487;DHT22;2256;48.740;9.106;2022-12-24T08:43:23;9.00;99.90
4487;DHT22;2256;48.740;9.106;2022-12-24T08:45:51;9.00;99.90
4487;DHT22;2256;48.740;9.106;2022-12-24T08:48:18;9.10;99.90
4487;DHT22;2256;48.740;9.106;2022-12-24T08:50:45;9.10;99.90
4487;DHT22;2256;48.740;9.106;2022-12-24T08:53:12;9.20;99.90
4487;DHT22;2256;48.740;9.106;2022-12-24T08:55:39;9.10;99.90
4487;DHT22;2256;48.740;9.106;2022-12-24T08:58:08;9.10;99.90
4487;DHT22;2256;48.740;9.106;2022-12-24T09:00:35;8.90;99.90
4487;DHT22;2256;48.740;9.106;2022-12-24T09:03:02;9.00;99.90
4487;DHT22;2256;48.740;9.106;2022-12-24T09:05:28;9.10;99.90
4487;DHT22;2256;48.740;9.106;2022-12-24T09:07:55;9.10;99.90
4487;DHT22;2256;48.740;9.106;2022-12-24T09:10:22;9.10;99.90
4487;DHT22;2256;48.740;9.106;2022-12-24T09:12:49;9.20;99.90
4487;DHT22;2256;48.740;9.106;2022-12-24T09:15:17;9.20;99.90
4487;DHT22;2256;48.740;9.106;2022-12-24T09:17:44;9.40;99.90
4487;DHT22;2256;48.740;9.106;2022-12-24T09:20:11;9.50;99.90
4487;DHT22;2256;48.740;9.106;2022-12-24T09:22:38;9.70;99.90
4487;DHT22;2256;48.740;9.106;2022-12-24T09:25:06;10.30;99.90
4487;DHT22;2256;48.740;9.106;2022-12-24T09:27:35;11.20;99.90
4487;DHT22;2256;48.740;9.106;2022-12-24T09:30:02;11.80;99.90
4487;DHT22;2256;48.740;9.106;2022-12-24T09:32:31;12.10;99.90
4487;DHT22;2256;48.740;9.106;2022-12-24T09:34:58;12.10;99.90
4487;DHT22;2256;48.740;9.106;2022-12-24T09:37:24;11.60;99.90
4487;DHT22;2256;48.740;9.106;2022-12-24T09:39:51;11.40;99.90
4487;DHT22;2256;48.740;9.106;2022-12-24T09:42:27;11.00;99.90
4487;DHT22;2256;48.740;9.106;2022-12-24T09:45:04;10.70;99.90
4487;DHT22;2256;48.740;9.106;2022-12-24T09:47:36;10.50;99.90
4487;DHT22;2256;48.740;9.106;2022-12-24T09:50:21;10.40;99.90
4487;DHT22;2256;48.740;9.106;2022-12-24T09:52:52;10.30;99.90
4487;DHT22;2256;48.740;9.106;2022-12-24T09:55:24;10.20;99.90
4487;DHT22;2256;48.740;9.106;2022-12-24T09:57:53;10.10;99.90
4487;DHT22;2256;48.740;9.106;2022-12-24T10:00:22;10.00;99.90
4487;DHT22;2256;48.740;9.106;2022-12-24T10:02:51;10.20;99.90
4487;DHT22;2256;48.740;9.106;2022-12-24T10:05:25;10.30;99.90
4487;DHT22;2256;48.740;9.106;2022-12-24T10:08:00;10.40;99.90
4487;DHT22;2256;48.740;9.106;2022-12-24T10:10:36;10.60;99.90
4487;DHT22;2256;48.740;9.106;2022-12-24T10:13:11;10.70;99.90
4487;DHT22;2256;48.740;9.106;2022-12-24T10:15:49;10.80;99.90
4487;DHT22;2256;48.740;9.106;2022-12-24T10:18:28;10.70;99.90
4487;DHT22;2256;48.740;9.106;2022-12-24T10:21:02;10.60;99.90
4487;DHT22;2256;48.740;9.106;2022-12-24T10:23:35;10.70;99.90
4487;DHT22;2256;48.740;9.106;2022-12-24T10:26:09;10.80;99.90
4487;DHT22;2256;48.740;9.106;2022-12-24T10:28:43;10.90;99.90
4487;DHT22;2256;48.740;9.106;2022-12-24T10:31:11;11.00;99.90
4487;DHT22;2256;48.740;9.106;2022-12-24T10:33:43;11.00;99.90
4487;DHT22;2256;48.740;9.106;2022-12-24T10:36:14;11.10;99.90
4487;DHT22;2256;48.740;9.106;2022-12-24T10:38:42;11.20;99.90
4487;DHT22;2256;48.740;9.106;2022-12-24T10:41:09;11.10;99.90
4487;DHT22;2256;48.740;9.106;2022-12-24T10:43:37;11.10;99.90
4487;DHT22;2256;48.740;9.106;2022-12-24T10:46:14;11.10;99.90
4487;DHT22;2256;48.740;9.106;2022-12-24T10:48:50;11.10;99.90
4487;DHT22;2256;48.740;9.106;2022-12-24T10:51:21;11.20;99.90
4487;DHT22;2256;48.740;9.106;2022-12-24T10:53:53;11.30;99.90
4487;DHT22;2256;48.740;9.106;2022-12-24T10:56:22;11.40;99.90
4487;DHT22;2256;48.740;9.106;2022-12-24T10:58:51;11.60;99.90
4487;DHT22;2256;48.740;9.106;2022-12-24T11:01:19;11.70;99.90
4487;DHT22;2256;48.740;9.106;2022-12-24T11:03:59;11.70;99.90
4487;DHT22;2256;48.740;9.106;2022-12-24T11:06:26;11.80;99.90
4487;DHT22;2256;48.740;9.106;2022-12-24T11:08:53;11.80;99.90
4487;DHT22;2256;48.740;9.106;2022-12-24T11:11:37;11.70;99.90
4487;DHT22;2256;48.740;9.106;2022-12-24T11:14:04;11.80;99.90
4487;DHT22;2256;48.740;9.106;2022-12-24T11:16:32;11.60;99.90
4487;DHT22;2256;48.740;9.106;2022-12-24T11:19:02;11.50;99.90
4487;DHT22;2256;48.740;9.106;2022-12-24T11:21:32;11.40;99.90
4487;DHT22;2256;48.740;9.106;2022-12-24T11:24:04;11.40;99.90
4487;DHT22;2256;48.740;9.106;2022-12-24T11:26:33;11.30;99.90
4487;DHT22;2256;48.740;9.106;2022-12-24T11:29:08;11.30;99.90
4487;DHT22;2256;48.740;9.106;2022-12-24T11:31:37;11.20;99.90
4487;DHT22;2256;48.740;9.106;2022-12-24T11:34:22;11.10;99.90
4487;DHT22;2256;48.740;9.106;2022-12-24T11:36:50;11.20;99.90
4487;DHT22;2256;48.740;9.106;2022-12-24T11:39:18;11.20;99.90
4487;DHT22;2256;48.740;9.106;2022-12-24T11:41:45;11.30;99.90
4487;DHT22;2256;48.740;9.106;2022-12-24T11:44:12;11.40;99.90
4487;DHT22;2256;48.740;9.106;2022-12-24T11:46:41;11.40;99.90
4487;DHT22;2256;48.740;9.106;2022-12-24T11:49:22;11.40;99.90
4487;DHT22;2256;48.740;9.106;2022-12-24T11:52:21;11.50;99.90
4487;DHT22;2256;48.740;9.106;2022-12-24T11:55:02;11.60;99.90
4487;DHT22;2256;48.740;9.106;2022-12-24T11:57:36;11.60;99.90
4487;DHT22;2256;48.740;9.106;2022-12-24T12:00:09;11.50;99.90
4487;DHT22;2256;48.740;9.106;2022-12-24T12:02:38;11.60;99.90
4487;DHT22;2256;48.740;9.106;2022-12-24T12:05:12;11.60;99.90
4487;DHT22;2256;48.740;9.106;2022-12-24T12:07:42;11.60;99.90
4487;DHT22;2256;48.740;9.106;2022-12-24T12:10:16;11.80;99.90
4487;DHT22;2256;48.740;9.106;2022-12-24T12:12:45;11.90;99.90
4487;DHT22;2256;48.740;9.106;2022-12-24T12:15:15;12.00;99.90
4487;DHT22;2256;48.740;9.106;2022-12-24T12:17:46;12.00;99.90
4487;DHT22;2256;48.740;9.106;2022-12-24T12:20:20;12.00;99.90
4487;DHT22;2256;48.740;9.106;2022-12-24T12:22:52;12.00;99.90
4487;DHT22;2256;48.740;9.106;2022-12-24T12:25:24;11.90;99.90
4487;DHT22;2256;48.740;9.106;2022-12-24T12:27:55;12.00;99.90
4487;DHT22;2256;48.740;9.106;2022-12-24T12:30:23;12.00;99.90
4487;DHT22;2256;48.740;9.106;2022-12-24T12:32:56;12.10;99.90
4487;DHT22;2256;48.740;9.106;2022-12-24T12:35:29;12.10;99.90
4487;DHT22;2256;48.740;9.106;2022-12-24T12:37:59;12.10;99.90
4487;DHT22;2256;48.740;9.106;2022-12-24T12:41:00;12.30;99.90
4487;DHT22;2256;48.740;9.106;2022-12-24T12:43:45;12.20;99.90
4487;DHT22;2256;48.740;9.106;2022-12-24T12:46:19;12.30;99.90
4487;DHT22;2256;48.740;9.106;2022-12-24T12:49:02;12.40;99.90
4487;DHT22;2256;48.740;9.106;2022-12-24T12:51:40;12.50;99.90
4487;DHT22;2256;48.740;9.106;2022-12-24T12:54:27;12.50;99.90
4487;DHT22;2256;48.740;9.106;2022-12-24T12:57:02;12.50;99.90
4487;DHT22;2256;48.740;9.106;2022-12-24T12:59:34;12.50;99.90
4487;DHT22;2256;48.740;9.106;2022-12-24T13:02:17;12.50;99.90
4487;DHT22;2256;48.740;9.106;2022-12-24T13:05:29;12.50;99.90
4487;DHT22;2256;48.740;9.106;2022-12-24T13:08:30;12.60;99.90
4487;DHT22;2256;48.740;9.106;2022-12-24T13:11:21;12.50;99.90
4487;DHT22;2256;48.740;9.106;2022-12-24T13:14:15;12.40;99.90
4487;DHT22;2256;48.740;9.106;2022-12-24T13:20:09;12.20;99.90
4487;DHT22;2256;48.740;9.106;2022-12-24T13:22:37;12.00;99.90
4487;DHT22;2256;48.740;9.106;2022-12-24T13:25:17;11.90;99.90
4487;DHT22;2256;48.740;9.106;2022-12-24T13:27:45;11.80;99.90
4487;DHT22;2256;48.740;9.106;2022-12-24T13:30:33;11.60;99.90
4487;DHT22;2256;48.740;9.106;2022-12-24T13:33:01;11.60;99.90
4487;DHT22;2256;48.740;9.106;2022-12-24T13:35:36;11.50;99.90
4487;DHT22;2256;48.740;9.106;2022-12-24T13:38:28;11.50;99.90
4487;DHT22;2256;48.740;9.106;2022-12-24T13:44:15;11.60;99.90
4487;DHT22;2256;48.740;9.106;2022-12-24T13:46:47;11.50;99.90
4487;DHT22;2256;48.740;9.106;2022-12-24T13:49:17;11.30;99.90
4487;DHT22;2256;48.740;9.106;2022-12-24T13:51:45;11.30;99.90
4487;DHT22;2256;48.740;9.106;2022-12-24T13:54:13;11.30;99.90
4487;DHT22;2256;48.740;9.106;2022-12-24T13:56:41;11.30;99.90
4487;DHT22;2256;48.740;9.106;2022-12-24T13:59:12;11.20;99.90
4487;DHT22;2256;48.740;9.106;2022-12-24T14:01:42;11.20;99.90
4487;DHT22;2256;48.740;9.106;2022-12-24T14:04:22;11.20;99.90
4487;DHT22;2256;48.740;9.106;2022-12-24T14:06:51;11.20;99.90
4487;DHT22;2256;48.740;9.106;2022-12-24T14:09:21;11.20;99.90
4487;DHT22;2256;48.740;9.106;2022-12-24T14:12:29;11.30;99.90
4487;DHT22;2256;48.740;9.106;2022-12-24T14:14:56;11.20;99.90
4487;DHT22;2256;48.740;9.106;2022-12-24T14:17:25;11.20;99.90
4487;DHT22;2256;48.740;9.106;2022-12-24T14:19:53;11.30;99.90
4487;DHT22;2256;48.740;9.106;2022-12-24T14:22:26;11.30;99.90
4487;DHT22;2256;48.740;9.106;2022-12-24T14:24:56;11.30;99.90
4487;DHT22;2256;48.740;9.106;2022-12-24T14:27:30;11.30;99.90
4487;DHT22;2256;48.740;9.106;2022-12-24T14:30:03;11.20;99.90
4487;DHT22;2256;48.740;9.106;2022-12-24T14:32:33;11.40;99.90
4487;DHT22;2256;48.740;9.106;2022-12-24T14:35:13;11.40;99.90
4487;DHT22;2256;48.740;9.106;2022-12-24T14:37:44;11.30;99.90
4487;DHT22;2256;48.740;9.106;2022-12-24T14:40:14;11.30;99.90
4487;DHT22;2256;48.740;9.106;2022-12-24T14:42:48;11.30;99.90
4487;DHT22;2256;48.740;9.106;2022-12-24T14:45:27;11.40;99.90
4487;DHT22;2256;48.740;9.106;2022-12-24T14:48:00;11.40;99.90
4487;DHT22;2256;48.740;9.106;2022-12-24T14:50:44;11.30;99.90
4487;DHT22;2256;48.740;9.106;2022-12-24T14:53:22;11.20;99.90
4487;DHT22;2256;48.740;9.106;2022-12-24T14:55:51;11.10;99.90
4487;DHT22;2256;48.740;9.106;2022-12-24T14:58:26;11.10;99.90
4487;DHT22;2256;48.740;9.106;2022-12-24T15:00:55;11.00;99.90
4487;DHT22;2256;48.740;9.106;2022-12-24T15:03:24;11.00;99.90
4487;DHT22;2256;48.740;9.106;2022-12-24T15:05:53;10.90;99.90
4487;DHT22;2256;48.740;9.106;2022-12-24T15:08:26;10.90;99.90
4487;DHT22;2256;48.740;9.106;2022-12-24T15:10:58;10.80;99.90
4487;DHT22;2256;48.740;9.106;2022-12-24T15:13:30;10.80;99.90
4487;DHT22;2256;48.740;9.106;2022-12-24T15:15:59;10.70;99.90
4487;DHT22;2256;48.740;9.106;2022-12-24T15:18:28;10.70;99.90
4487;DHT22;2256;48.740;9.106;2022-12-24T15:20:58;10.60;99.90
4487;DHT22;2256;48.740;9.106;2022-12-24T15:23:28;10.50;99.90
4487;DHT22;2256;48.740;9.106;2022-12-24T15:26:21;10.50;99.90
4487;DHT22;2256;48.740;9.106;2022-12-24T15:28:50;10.40;99.90
4487;DHT22;2256;48.740;9.106;2022-12-24T15:31:18;10.50;99.90
4487;DHT22;2256;48.740;9.106;2022-12-24T15:33:46;10.40;99.90
4487;DHT22;2256;48.740;9.106;2022-12-24T15:36:14;10.30;99.90
4487;DHT22;2256;48.740;9.106;2022-12-24T15:38:43;10.30;99.90
4487;DHT22;2256;48.740;9.106;2022-12-24T15:41:17;10.20;99.90
4487;DHT22;2256;48.740;9.106;2022-12-24T15:43:45;10.20;99.90
4487;DHT22;2256;48.740;9.106;2022-12-24T15:46:22;10.10;99.90
4487;DHT22;2256;48.740;9.106;2022-12-24T15:48:50;10.10;99.90
4487;DHT22;2256;48.740;9.106;2022-12-24T15:51:23;10.10;99.90
4487;DHT22;2256;48.740;9.106;2022-12-24T15:53:56;10.10;99.90
4487;DHT22;2256;48.740;9.106;2022-12-24T15:56:34;10.00;99.90
4487;DHT22;2256;48.740;9.106;2022-12-24T15:59:24;10.10;99.90
4487;DHT22;2256;48.740;9.106;2022-12-24T16:01:52;10.00;99.90
4487;DHT22;2256;48.740;9.106;2022-12-24T16:04:22;9.90;99.90
4487;DHT22;2256;48.740;9.106;2022-12-24T16:06:54;9.90;99.90
4487;DHT22;2256;48.740;9.106;2022-12-24T16:09:38;9.90;99.90
4487;DHT22;2256;48.740;9.106;2022-12-24T16:12:12;9.80;99.90
4487;DHT22;2256;48.740;9.106;2022-12-24T16:14:40;9.80;99.90
4487;DHT22;2256;48.740;9.106;2022-12-24T16:17:18;9.70;99.90
4487;DHT22;2256;48.740;9.106;2022-12-24T16:19:47;9.70;99.90
4487;DHT22;2256;48.740;9.106;2022-12-24T16:22:17;9.70;99.90
4487;DHT22;2256;48.740;9.106;2022-12-24T16:24:56;9.60;99.90
4487;DHT22;2256;48.740;9.106;2022-12-24T16:27:23;9.60;99.90
4487;DHT22;2256;48.740;9.106;2022-12-24T16:29:50;9.60;99.90
4487;DHT22;2256;48.740;9.106;2022-12-24T16:32:28;9.60;99.90
4487;DHT22;2256;48.740;9.106;2022-12-24T16:34:55;9.60;99.90
4487;DHT22;2256;48.740;9.106;2022-12-24T16:37:22;9.60;99.90
4487;DHT22;2256;48.740;9.106;2022-12-24T16:39:49;9.60;99.90
4487;DHT22;2256;48.740;9.106;2022-12-24T16:42:15;9.60;99.90